Miraero Ace — 3FIH4 — position and weather

sailwx.info

Track history (hours):
 
Tides and Currents Weather Stations Pressure Air Temp Water Temp Dewpoint Dewpoint Depression Visibility Wind Speed Wind Dir Waves Ship Positions

Miraero Ace

Last reported at 2016-Jun-28 02:33 UTC. Time now 2016-Jun-28 13:26 UTC.
Position S 34°39' W 058°06'.

Length 229 m; draft 10.1 m.

Type: Ship. MMSI: 373216000.

Date/timePositionNaut miles runAvg speedWind from/ knotsBaromVisibWave heightAir tempDewpointWater temp
2016-Jun-28 02:33S 34°39' W 058°06'11 7.5
2016-Jun-28 01:08S 34°42' W 057°53'3 4.6
2016-Jun-28 00:33S 34°43' W 057°50'0 0.1
2016-Jun-27 23:32S 34°43' W 057°50'0 0.0
2016-Jun-27 22:32S 34°43' W 057°50'0 0.0
2016-Jun-27 21:32S 34°43' W 057°50'0 0.0
2016-Jun-27 20:32S 34°43' W 057°50'0 0.0
2016-Jun-27 19:32S 34°43' W 057°50'0 0.0
2016-Jun-27 18:32S 34°43' W 057°50'0 0.0
2016-Jun-27 17:32S 34°43' W 057°50'0 0.0
2016-Jun-27 16:32S 34°43' W 057°50'0 0.5
2016-Jun-27 15:33S 34°44' W 057°50'6 6.1
2016-Jun-27 14:33S 34°44' W 057°43'1312.2
2016-Jun-27 13:32S 34°48' W 057°28'26 1.3
2016-Jun-26 17:26S 35°06' W 057°05'  
2016-Jun-18 13:29S 23°53' W 042°19'1414.1
2016-Jun-18 12:30S 23°43' W 042°09'1714.3
2016-Jun-18 11:20S 23°30' W 041°57'1114.3
2016-Jun-18 10:34S 23°22' W 041°48'1514.8
2016-Jun-18 09:33S 23°10' W 041°38'2014.8
2016-Jun-18 08:11S 22°55' W 041°23'  
Track history (hours):
 
Tides and Currents Weather Stations Pressure Air Temp Water Temp Dewpoint Dewpoint Depression Visibility Wind Speed Wind Dir Waves Ship Positions

Miraero Ace

Last reported at 2016-Jun-28 02:33 UTC. Time now 2016-Jun-28 13:26 UTC.
Position S 34°39' W 058°06'.

Length 229 m; draft 10.1 m.

Type: Ship. MMSI: 373216000.

Date/timePositionNaut miles runAvg speedWind from/ knotsBaromVisibWave heightAir tempDewpointWater temp
2016-Jun-28 02:33S 34°39' W 058°06'11 7.5
2016-Jun-28 01:08S 34°42' W 057°53'3 4.6
2016-Jun-28 00:33S 34°43' W 057°50'0 0.1
2016-Jun-27 23:32S 34°43' W 057°50'0 0.0
2016-Jun-27 22:32S 34°43' W 057°50'0 0.0
2016-Jun-27 21:32S 34°43' W 057°50'0 0.0
2016-Jun-27 20:32S 34°43' W 057°50'0 0.0
2016-Jun-27 19:32S 34°43' W 057°50'0 0.0
2016-Jun-27 18:32S 34°43' W 057°50'0 0.0
2016-Jun-27 17:32S 34°43' W 057°50'0 0.0
2016-Jun-27 16:32S 34°43' W 057°50'0 0.5
2016-Jun-27 15:33S 34°44' W 057°50'6 6.1
2016-Jun-27 14:33S 34°44' W 057°43'1312.2
2016-Jun-27 13:32S 34°48' W 057°28'26 1.3
2016-Jun-26 17:26S 35°06' W 057°05'  
2016-Jun-18 13:29S 23°53' W 042°19'1414.1
2016-Jun-18 12:30S 23°43' W 042°09'1714.3
2016-Jun-18 11:20S 23°30' W 041°57'1114.3
2016-Jun-18 10:34S 23°22' W 041°48'1514.8
2016-Jun-18 09:33S 23°10' W 041°38'2014.8
2016-Jun-18 08:11S 22°55' W 041°23'  

Dump ship's entire track history